createdAt,value
2023-05-11T00:02:17.872Z,26.8
2023-05-11T00:07:55.101Z,26.8
2023-05-11T00:13:31.220Z,26.8
2023-05-11T00:18:52.613Z,26.8
2023-05-11T00:24:29.079Z,26.7
2023-05-11T00:30:05.573Z,26.7
2023-05-11T00:35:27.593Z,26.7
2023-05-11T00:41:06.785Z,26.6
2023-05-11T00:46:42.955Z,26.6
2023-05-11T00:52:19.256Z,26.6
2023-05-11T00:57:55.168Z,26.6
2023-05-11T01:03:32.098Z,26.6
2023-05-11T01:09:08.622Z,26.6
2023-05-11T01:15:00.597Z,26.8
2023-05-11T01:20:37.037Z,27.1
2023-05-11T01:26:12.933Z,27.5
2023-05-11T01:32:04.809Z,28
2023-05-11T01:37:58.776Z,28.6
2023-05-11T01:43:49.605Z,29.1
2023-05-11T01:49:42.142Z,29.8
2023-05-11T01:55:18.172Z,30.4
2023-05-11T02:01:09.419Z,31.1
2023-05-11T02:07:01.701Z,31.8
2023-05-11T02:12:53.288Z,32.4
2023-05-11T02:18:45.482Z,33.1
2023-05-11T02:24:37.068Z,33.9
2023-05-11T02:30:13.469Z,34.7
2023-05-11T02:36:05.662Z,35.4
2023-05-11T02:41:57.986Z,36
2023-05-11T02:47:50.002Z,36.3
2023-05-11T02:53:42.075Z,36.4
2023-05-11T02:59:33.917Z,36.6
2023-05-11T03:05:28.212Z,36.6
2023-05-11T03:11:21.710Z,36.6
2023-05-11T03:17:13.537Z,36.6
2023-05-11T03:23:05.697Z,36.7
2023-05-11T03:28:56.936Z,36.7
2023-05-11T03:34:52.262Z,36.7
2023-05-11T03:40:43.423Z,36.7
2023-05-11T03:46:37.005Z,36.7
2023-05-11T03:52:29.543Z,36.6
2023-05-11T03:58:20.976Z,36.7
2023-05-11T04:04:13.643Z,36.6
2023-05-11T04:10:05.808Z,36.6
2023-05-11T04:15:57.263Z,36.6
2023-05-11T04:21:49.387Z,36.6
2023-05-11T04:27:41.306Z,36.3
2023-05-11T04:33:32.256Z,36.3
2023-05-11T04:39:24.481Z,36.4
2023-05-11T04:45:15.486Z,36.4
2023-05-11T04:51:07.509Z,36.4
2023-05-11T04:56:44.038Z,36.4
2023-05-11T05:02:20.367Z,36.4
2023-05-11T05:07:58.907Z,36.4
2023-05-11T05:13:34.567Z,36.4
2023-05-11T05:19:25.956Z,36.4
2023-05-11T05:25:17.635Z,36.4
2023-05-11T05:31:09.732Z,36.4
2023-05-11T05:36:46.424Z,36.3
2023-05-11T05:42:22.402Z,36.3
2023-05-11T05:48:16.388Z,36.3
2023-05-11T05:54:07.738Z,36.3
2023-05-11T06:00:01.146Z,36.3
2023-05-11T06:05:56.832Z,36.3
2023-05-11T06:11:51.387Z,36.2
2023-05-11T06:17:43.109Z,36.2
2023-05-11T06:23:34.655Z,36.2
2023-05-11T06:29:29.302Z,36.1
2023-05-11T06:34:51.176Z,36.1
2023-05-11T06:40:27.685Z,36.1
2023-05-11T06:46:20.357Z,36.1
2023-05-11T06:52:15.839Z,36.1
2023-05-11T06:58:07.126Z,36
2023-05-11T07:03:59.384Z,36
2023-05-11T07:09:51.695Z,35.9
2023-05-11T07:15:43.997Z,35.9
2023-05-11T07:21:21.152Z,35.9
2023-05-11T07:26:41.933Z,35.9
2023-05-11T07:32:19.383Z,35.9
2023-05-11T07:37:56.312Z,35.9
2023-05-11T07:43:50.956Z,35.8
2023-05-11T07:50:16.927Z,35.8
2023-05-11T07:55:53.903Z,35.8
2023-05-11T08:01:46.279Z,35.7
2023-05-11T08:07:41.104Z,35.7
2023-05-11T08:13:18.509Z,35.6
2023-05-11T08:19:10.817Z,35.6
2023-05-11T08:25:05.828Z,35.6
2023-05-11T08:30:44.825Z,35.6
2023-05-11T08:36:32.884Z,35.6
2023-05-11T08:42:26.274Z,35.5
2023-05-11T08:48:36.854Z,35.5
2023-05-11T08:54:28.654Z,35.5
2023-05-11T09:00:21.334Z,35.4
2023-05-11T09:06:14.179Z,31.4
2023-05-11T09:11:52.445Z,33.9
2023-05-11T09:18:07.499Z,35
2023-05-11T09:23:28.794Z,35.6
2023-05-11T09:29:35.750Z,35.6
2023-05-11T09:35:16.341Z,35.6
2023-05-11T09:41:35.657Z,39.6
2023-05-11T09:47:13.541Z,37.6
2023-05-11T09:53:11.896Z,36.8
2023-05-11T09:58:47.708Z,41
2023-05-11T10:04:39.200Z,41.5
2023-05-11T10:10:17.408Z,41.3
2023-05-11T10:15:57.619Z,40.8
2023-05-11T10:21:50.404Z,39.6
2023-05-11T10:27:44.003Z,38.7
2023-05-11T10:33:36.225Z,39.1
2023-05-11T10:39:27.492Z,40.6
2023-05-11T10:45:19.783Z,41.6
2023-05-11T10:51:16.328Z,41.9
2023-05-11T10:57:09.258Z,43.4
2023-05-11T11:03:02.016Z,43.3
2023-05-11T11:08:53.521Z,45
2023-05-11T11:14:46.068Z,44.6
2023-05-11T11:20:39.044Z,44.6
2023-05-11T11:26:29.665Z,46.4
2023-05-11T11:32:21.140Z,45.4
2023-05-11T11:38:12.527Z,44.8
2023-05-11T11:44:27.193Z,43.9
2023-05-11T11:50:19.529Z,44.1
2023-05-11T11:56:11.867Z,44.3
2023-05-11T12:02:04.992Z,44
2023-05-11T12:07:58.505Z,43.3
2023-05-11T12:13:50.571Z,42.5
2023-05-11T12:19:42.303Z,42
2023-05-11T12:25:34.078Z,41.4
2023-05-11T12:31:25.657Z,41.3
2023-05-11T12:37:17.178Z,41.1
2023-05-11T12:43:08.338Z,40.8
2023-05-11T12:49:00.170Z,40.5
2023-05-11T12:54:51.828Z,39.9
2023-05-11T13:00:43.356Z,39.3
2023-05-11T13:06:20.223Z,38.8
2023-05-11T13:12:11.772Z,38.6
2023-05-11T13:18:06.761Z,38.3
2023-05-11T13:23:58.451Z,37.9
2023-05-11T13:30:03.559Z,37.5
2023-05-11T13:35:40.440Z,37.2
2023-05-11T13:41:31.539Z,36.9
2023-05-11T13:47:23.956Z,36.6
2023-05-11T13:53:18.724Z,36.1
2023-05-11T13:59:10.155Z,35.8
2023-05-11T14:05:20.572Z,35.2
2023-05-11T14:11:27.140Z,34.8
2023-05-11T14:17:19.989Z,34.6
2023-05-11T14:23:14.213Z,34.3
2023-05-11T14:29:14.776Z,34
2023-05-11T14:35:08.944Z,33.7
2023-05-11T14:41:01.748Z,33.3
2023-05-11T14:46:54.092Z,32.8
2023-05-11T14:52:46.063Z,32.3
2023-05-11T14:58:38.441Z,31.8
2023-05-11T15:04:45.472Z,30.9
2023-05-11T15:10:53.523Z,30.4
2023-05-11T15:16:46.165Z,30.1
2023-05-11T15:22:39.296Z,29.8
2023-05-11T15:28:31.910Z,29.6
2023-05-11T15:34:27.300Z,29.4
2023-05-11T15:40:35.776Z,29.2
2023-05-11T15:46:28.956Z,29
2023-05-11T15:52:08.300Z,28.8
2023-05-11T15:58:01.685Z,28.6
2023-05-11T16:03:57.239Z,28.3
2023-05-11T16:09:50.916Z,28
2023-05-11T16:15:45.864Z,27.9
2023-05-11T16:21:42.913Z,27.8
2023-05-11T16:27:38.698Z,27.7
2023-05-11T16:33:48.035Z,27.6
2023-05-11T16:39:44.740Z,27.6
2023-05-11T16:45:39.306Z,27.6
2023-05-11T16:51:37.824Z,27.6
2023-05-11T16:57:38.082Z,27.6
2023-05-11T17:03:41.145Z,27.5
2023-05-11T17:09:41.313Z,27.4
2023-05-11T17:15:41.997Z,27.4
2023-05-11T17:21:42.924Z,27.4
2023-05-11T17:27:55.378Z,27.3
2023-05-11T17:34:28.440Z,27.3
2023-05-11T17:40:38.602Z,27.2
2023-05-11T17:46:40.429Z,27.1
2023-05-11T17:52:41.370Z,27.1
2023-05-11T17:58:42.321Z,27.1
2023-05-11T18:04:43.931Z,27
2023-05-11T18:10:58.867Z,27
2023-05-11T18:17:03.098Z,26.9
2023-05-11T18:22:48.840Z,26.9
2023-05-11T18:28:48.407Z,26.9
2023-05-11T18:34:33.278Z,26.8
2023-05-11T18:40:35.089Z,26.8
2023-05-11T18:46:35.265Z,26.8
2023-05-11T18:52:38.748Z,26.8
2023-05-11T18:58:54.734Z,26.7
2023-05-11T19:05:07.199Z,26.7
2023-05-11T19:11:10.481Z,26.7
2023-05-11T19:17:12.467Z,26.7
2023-05-11T19:23:16.663Z,26.7
2023-05-11T19:29:26.248Z,26.6
2023-05-11T19:35:28.541Z,26.5
2023-05-11T19:42:07.730Z,26.6
2023-05-11T19:48:22.150Z,26.8
2023-05-11T19:54:26.754Z,26.8
2023-05-11T20:04:25.608Z,27
2023-05-11T20:10:29.866Z,27.3
2023-05-11T20:16:30.586Z,27.7
2023-05-11T20:22:31.938Z,28
2023-05-11T20:28:33.443Z,28.2
2023-05-11T20:34:48.169Z,28.3
2023-05-11T20:40:47.202Z,28.4
2023-05-11T20:46:47.588Z,28.4
2023-05-11T20:53:07.147Z,28.4
2023-05-11T20:59:07.478Z,28.5
2023-05-11T21:05:15.908Z,28.5
2023-05-11T21:11:14.120Z,28.5
2023-05-11T21:17:12.008Z,28.4
2023-05-11T21:23:09.239Z,28.5
2023-05-11T21:28:48.739Z,28.5
2023-05-11T21:34:27.012Z,28.4
2023-05-11T21:39:49.667Z,28.4
2023-05-11T21:45:25.655Z,28.4
2023-05-11T21:50:46.106Z,28.4
2023-05-11T21:56:22.527Z,28.4
2023-05-11T22:01:59.514Z,28.4
2023-05-11T22:07:36.600Z,28.4
2023-05-11T22:13:20.711Z,28.4
2023-05-11T22:18:56.634Z,28.4
2023-05-11T22:24:32.551Z,28.4
2023-05-11T22:29:53.370Z,28.3
2023-05-11T22:35:45.305Z,28.3
2023-05-11T22:40:50.473Z,28.4
2023-05-11T22:46:11.802Z,28.3
2023-05-11T22:51:32.294Z,28.3
2023-05-11T22:56:53.112Z,28.3
2023-05-11T23:02:15.362Z,28.3
2023-05-11T23:07:36.592Z,28.3
2023-05-11T23:13:12.508Z,28.3
2023-05-11T23:18:33.557Z,28.3
2023-05-11T23:23:54.779Z,28.3
2023-05-11T23:28:59.355Z,28.2
2023-05-11T23:34:21.325Z,28.2
2023-05-11T23:39:42.405Z,28.2
2023-05-11T23:45:03.753Z,28.2
2023-05-11T23:50:40.272Z,28.2
2023-05-11T23:56:01.001Z,28.2
